Gbadolite Airport


Codes: FZFD/BDT
Name: Gbadolite Airport
City:
Country: Congo [DRC]
Elevation: 1509 ft.
Wikipedia:

Photos at Gbadolite Airport


   Photos courtesy of SpottingLog. You can add your own sightings and photos by signing up for a free trial today.



No photos found.

Weather at Gbadolite Airport


Time (UTC)DescriptionTempratureWindCloud coverageVisibilityPressureHumidity
18-Apr-2024 00:00Overcast Clouds25°C4 mph, S100%10000m1008hPa78%
18-Apr-2024 03:00Overcast Clouds25°C2 mph, SW100%10000m1008hPa76%
18-Apr-2024 06:00Light Rain26°C4 mph, SW100%10000m1011hPa73%
18-Apr-2024 09:00Overcast Clouds28°C4 mph, W100%10000m1011hPa69%
18-Apr-2024 12:00Overcast Clouds37°C7 mph, SW100%10000m1006hPa34%
18-Apr-2024 15:00Moderate Rain24°C9 mph, S100%10000m1006hPa91%
18-Apr-2024 18:00Light Rain23°C4 mph, SE100%10000m1008hPa83%
18-Apr-2024 21:00Overcast Clouds23°C2 mph, SW100%10000m1009hPa86%
19-Apr-2024 00:00Overcast Clouds22°C2 mph, S100%10000m1008hPa89%
19-Apr-2024 03:00Overcast Clouds23°C4 mph, SE100%10000m1009hPa91%
19-Apr-2024 06:00Light Rain24°C4 mph, S99%10000m1011hPa87%
19-Apr-2024 09:00Broken Clouds33°C7 mph, S77%10000m1010hPa47%
19-Apr-2024 12:00Overcast Clouds37°C7 mph, SW89%10000m1006hPa34%
19-Apr-2024 15:00Moderate Rain26°C11 mph, SE100%8593m1006hPa83%
19-Apr-2024 18:00Heavy Intensity Rain23°C7 mph, SE100%10000m1010hPa95%
19-Apr-2024 21:00Light Rain23°C2 mph, S100%10000m1008hPa94%
20-Apr-2024 00:00Overcast Clouds23°C4 mph, S100%10000m1008hPa96%
20-Apr-2024 03:00Overcast Clouds23°C2 mph, SW100%10000m1008hPa96%
20-Apr-2024 06:00Overcast Clouds24°C4 mph, SW100%10000m1010hPa88%
20-Apr-2024 09:00Overcast Clouds28°C7 mph, S100%10000m1011hPa63%
20-Apr-2024 12:00Overcast Clouds33°C9 mph, SW96%10000m1008hPa43%
20-Apr-2024 15:00Few Clouds33°C7 mph, S20%10000m1006hPa42%
20-Apr-2024 18:00Broken Clouds24°C4 mph, S54%10000m1008hPa72%
20-Apr-2024 21:00Broken Clouds23°C4 mph, S65%10000m1009hPa77%
21-Apr-2024 00:00Broken Clouds22°C2 mph, S81%10000m1008hPa82%
21-Apr-2024 03:00Overcast Clouds22°C2 mph, SE99%10000m1008hPa84%
21-Apr-2024 06:00Light Rain22°C4 mph, E92%10000m1011hPa92%
21-Apr-2024 09:00Overcast Clouds24°C4 mph, E100%10000m1011hPa83%
21-Apr-2024 12:00Overcast Clouds29°C4 mph, SW100%10000m1008hPa53%
21-Apr-2024 15:00Broken Clouds32°C4 mph, S82%10000m1006hPa42%
21-Apr-2024 18:00Overcast Clouds25°C2 mph, S87%10000m1006hPa65%
21-Apr-2024 21:00Few Clouds24°C2 mph, SE14%10000m1008hPa70%
22-Apr-2024 00:00Few Clouds24°C2 mph, SE20%10000m1007hPa73%
22-Apr-2024 03:00Broken Clouds24°C2 mph, S70%10000m1008hPa76%
22-Apr-2024 06:00Broken Clouds26°C2 mph, SE83%10000m1010hPa67%
22-Apr-2024 09:00Overcast Clouds31°C7 mph, S100%10000m1009hPa49%
22-Apr-2024 12:00Overcast Clouds39°C4 mph, S94%10000m1004hPa27%
22-Apr-2024 15:00Overcast Clouds38°C7 mph, E100%10000m1003hPa27%
22-Apr-2024 18:00Broken Clouds28°C7 mph, N69%10000m1005hPa55%
22-Apr-2024 21:00Broken Clouds25°C4 mph, S72%10000m1007hPa71%